createdAt,value
2019-03-31T00:03:34.616Z,8.70
2019-03-31T00:06:04.075Z,8.68
2019-03-31T00:08:33.476Z,8.66
2019-03-31T00:11:02.912Z,8.58
2019-03-31T00:13:32.359Z,8.58
2019-03-31T00:16:01.825Z,8.55
2019-03-31T00:18:31.132Z,8.45
2019-03-31T00:21:05.825Z,8.46
2019-03-31T00:23:35.158Z,8.43
2019-03-31T00:26:04.622Z,8.37
2019-03-31T00:28:33.964Z,8.35
2019-03-31T00:31:03.286Z,8.35
2019-03-31T00:33:32.615Z,8.36
2019-03-31T00:36:01.959Z,8.35
2019-03-31T00:38:31.273Z,8.36
2019-03-31T00:41:00.916Z,8.35
2019-03-31T00:43:42.095Z,8.33
2019-03-31T00:46:11.795Z,8.31
2019-03-31T00:48:41.114Z,8.26
2019-03-31T00:51:10.663Z,8.25
2019-03-31T00:53:40.496Z,8.22
2019-03-31T00:56:09.834Z,8.19
2019-03-31T00:58:39.155Z,8.19
2019-03-31T01:01:19.861Z,8.13
2019-03-31T01:03:49.616Z,8.17
2019-03-31T01:06:31.773Z,8.14
2019-03-31T01:15:26.339Z,8.12
2019-03-31T01:17:55.898Z,8.12
2019-03-31T01:20:25.240Z,8.00
2019-03-31T01:22:54.829Z,7.92
2019-03-31T01:31:19.621Z,7.90
2019-03-31T01:33:48.958Z,7.90
2019-03-31T01:38:58.669Z,7.89
2019-03-31T01:41:28.062Z,7.86
2019-03-31T01:43:57.392Z,7.90
2019-03-31T01:47:06.632Z,7.91
2019-03-31T01:52:32.153Z,8.00
2019-03-31T01:55:14.227Z,7.98
2019-03-31T01:57:51.850Z,8.02
2019-03-31T02:00:40.530Z,7.97
2019-03-31T02:03:09.868Z,7.95
2019-03-31T02:05:45.074Z,7.85
2019-03-31T02:08:14.486Z,7.80
2019-03-31T02:10:43.811Z,7.78
2019-03-31T02:13:13.207Z,7.79
2019-03-31T02:19:03.430Z,7.75
2019-03-31T02:21:32.769Z,7.77
2019-03-31T02:24:02.225Z,7.75
2019-03-31T02:26:31.558Z,7.73
2019-03-31T02:29:00.960Z,7.67
2019-03-31T02:31:30.996Z,7.68
2019-03-31T02:34:00.337Z,7.64
2019-03-31T02:36:29.667Z,7.61
2019-03-31T02:42:12.313Z,7.58
2019-03-31T02:44:44.867Z,7.60
2019-03-31T02:47:35.021Z,7.47
2019-03-31T02:53:37.921Z,7.35
2019-03-31T02:56:19.019Z,7.31
2019-03-31T02:58:48.401Z,7.16
2019-03-31T03:01:17.866Z,7.12
2019-03-31T03:04:32.933Z,7.14
2019-03-31T03:16:40.771Z,7.02
2019-03-31T03:19:10.171Z,7.04
2019-03-31T03:21:39.552Z,6.97
2019-03-31T03:24:33.853Z,7.00
2019-03-31T03:27:03.180Z,6.97
2019-03-31T03:29:32.512Z,6.88
2019-03-31T03:32:01.904Z,6.87
2019-03-31T03:34:31.229Z,6.85
2019-03-31T03:37:00.566Z,6.85
2019-03-31T03:39:29.890Z,6.79
2019-03-31T03:41:59.219Z,6.78
2019-03-31T03:44:28.551Z,6.80
2019-03-31T03:46:57.871Z,6.76
2019-03-31T03:49:27.211Z,6.76
2019-03-31T03:51:56.539Z,6.69
2019-03-31T03:54:25.861Z,6.67
2019-03-31T03:56:55.195Z,6.68
2019-03-31T03:59:24.516Z,6.63
2019-03-31T04:01:53.851Z,6.60
2019-03-31T04:04:42.263Z,6.65
2019-03-31T04:07:11.635Z,6.63
2019-03-31T04:09:40.936Z,6.65
2019-03-31T04:12:10.318Z,6.63
2019-03-31T04:14:39.628Z,6.60
2019-03-31T04:17:08.939Z,6.61
2019-03-31T04:19:38.286Z,6.57
2019-03-31T04:22:07.608Z,6.55
2019-03-31T04:24:42.856Z,6.51
2019-03-31T04:27:12.288Z,6.53
2019-03-31T04:29:41.649Z,6.51
2019-03-31T04:32:10.964Z,6.47
2019-03-31T04:34:40.298Z,6.48
2019-03-31T04:37:09.621Z,6.47
2019-03-31T04:39:38.950Z,6.46
2019-03-31T04:42:08.284Z,6.43
2019-03-31T04:44:37.627Z,6.39
2019-03-31T04:47:07.047Z,6.36
2019-03-31T04:49:36.379Z,6.39
2019-03-31T04:52:05.717Z,6.35
2019-03-31T04:54:35.039Z,6.30
2019-03-31T04:57:04.749Z,6.27
2019-03-31T04:59:44.843Z,6.26
2019-03-31T05:02:14.189Z,6.25
2019-03-31T05:04:43.515Z,6.22
2019-03-31T05:07:12.846Z,6.18
2019-03-31T05:09:42.197Z,6.18
2019-03-31T05:12:11.526Z,6.20
2019-03-31T05:14:40.875Z,6.31
2019-03-31T05:17:10.199Z,6.26
2019-03-31T05:19:39.532Z,6.28
2019-03-31T05:22:08.871Z,6.30
2019-03-31T05:24:38.210Z,6.38
2019-03-31T05:27:07.553Z,6.41
2019-03-31T05:29:36.888Z,6.34
2019-03-31T05:32:06.219Z,6.45
2019-03-31T05:34:35.568Z,6.56
2019-03-31T05:37:04.894Z,6.70
2019-03-31T05:39:34.502Z,6.76
2019-03-31T05:42:03.818Z,6.76
2019-03-31T05:44:33.143Z,6.77
2019-03-31T05:47:21.567Z,6.75
2019-03-31T05:49:50.894Z,6.74
2019-03-31T05:52:20.232Z,6.82
2019-03-31T05:54:49.554Z,6.97
2019-03-31T05:57:18.894Z,6.88
2019-03-31T05:59:48.226Z,7.03
2019-03-31T06:02:17.545Z,7.19
2019-03-31T06:04:46.885Z,7.19
2019-03-31T06:07:16.467Z,7.16
2019-03-31T06:09:45.794Z,7.28
2019-03-31T06:12:15.127Z,7.15
2019-03-31T06:14:44.455Z,7.21
2019-03-31T06:17:13.790Z,7.25
2019-03-31T06:19:43.122Z,7.39
2019-03-31T06:22:24.282Z,7.38
2019-03-31T06:24:53.710Z,7.30
2019-03-31T06:27:23.040Z,7.41
2019-03-31T06:29:52.384Z,7.57
2019-03-31T06:32:21.707Z,7.71
2019-03-31T06:34:51.045Z,7.80
2019-03-31T06:37:20.373Z,7.85
2019-03-31T06:39:49.710Z,8.02
2019-03-31T06:42:19.042Z,8.04
2019-03-31T06:44:48.376Z,7.91
2019-03-31T06:47:17.715Z,8.00
2019-03-31T06:49:47.040Z,7.95
2019-03-31T06:52:16.367Z,8.02
2019-03-31T06:54:45.697Z,8.17
2019-03-31T06:57:15.026Z,8.18
2019-03-31T06:59:44.360Z,8.22
2019-03-31T07:02:13.688Z,8.40
2019-03-31T07:04:43.011Z,8.58
2019-03-31T07:07:12.346Z,8.52
2019-03-31T07:09:47.449Z,8.64
2019-03-31T07:12:17.116Z,8.74
2019-03-31T07:14:46.434Z,8.52
2019-03-31T07:17:15.759Z,8.89
2019-03-31T07:19:45.093Z,9.00
2019-03-31T07:22:14.411Z,9.12
2019-03-31T07:24:44.025Z,9.27
2019-03-31T07:27:13.348Z,9.16
2019-03-31T07:29:42.677Z,9.23
2019-03-31T07:32:12.007Z,9.44
2019-03-31T07:34:41.638Z,9.58
2019-03-31T07:37:30.063Z,9.56
2019-03-31T07:39:59.909Z,9.80
2019-03-31T07:42:51.231Z,9.88
2019-03-31T07:45:30.190Z,9.94
2019-03-31T07:47:59.532Z,10.02
2019-03-31T07:50:28.863Z,10.13
2019-03-31T07:52:58.451Z,9.91
2019-03-31T07:55:28.063Z,10.06
2019-03-31T07:57:57.410Z,10.26
2019-03-31T08:01:06.641Z,10.49
2019-03-31T08:03:35.971Z,10.47
2019-03-31T08:06:05.306Z,10.52
2019-03-31T08:08:34.639Z,10.72
2019-03-31T08:11:03.972Z,10.65
2019-03-31T08:13:33.314Z,10.86
2019-03-31T08:16:02.649Z,10.84
2019-03-31T08:18:31.978Z,11.04
2019-03-31T08:21:01.339Z,11.17
2019-03-31T08:23:30.666Z,11.23
2019-03-31T08:26:00.024Z,11.46
2019-03-31T08:28:29.351Z,11.45
2019-03-31T08:30:58.691Z,11.53
2019-03-31T08:33:28.027Z,11.83
2019-03-31T08:35:57.354Z,11.78
2019-03-31T08:38:46.031Z,11.96
2019-03-31T08:41:15.366Z,12.07
2019-03-31T08:43:44.703Z,12.26
2019-03-31T08:46:14.026Z,12.44
2019-03-31T08:48:43.358Z,12.53
2019-03-31T08:51:12.695Z,12.51
2019-03-31T08:53:42.027Z,12.85
2019-03-31T08:56:11.372Z,12.81
2019-03-31T08:58:40.705Z,13.22
2019-03-31T09:03:51.179Z,13.39
2019-03-31T09:06:21.012Z,13.41
2019-03-31T09:08:50.725Z,13.54
2019-03-31T09:11:20.206Z,13.74
2019-03-31T09:13:49.529Z,13.74
2019-03-31T09:16:38.218Z,13.88
2019-03-31T09:19:07.546Z,13.88
2019-03-31T09:21:56.227Z,14.53
2019-03-31T09:24:37.679Z,14.23
2019-03-31T09:27:18.867Z,14.50
2019-03-31T09:29:48.312Z,14.50
2019-03-31T09:32:17.638Z,14.59
2019-03-31T09:34:46.982Z,14.75
2019-03-31T09:37:28.920Z,14.91
2019-03-31T09:39:58.270Z,14.91
2019-03-31T09:42:27.599Z,15.28
2019-03-31T09:44:56.999Z,15.31
2019-03-31T09:47:26.339Z,15.47
2019-03-31T09:49:55.671Z,15.27
2019-03-31T09:52:25.016Z,15.58
2019-03-31T09:54:54.343Z,15.91
2019-03-31T09:57:23.674Z,15.83
2019-03-31T09:59:53.283Z,15.93
2019-03-31T10:02:22.607Z,16.09
2019-03-31T10:04:51.952Z,16.26
2019-03-31T10:07:23.815Z,16.54
2019-03-31T10:16:01.187Z,17.14
2019-03-31T10:18:30.567Z,17.26
2019-03-31T10:20:59.921Z,17.41
2019-03-31T10:23:29.336Z,17.45
2019-03-31T10:25:58.989Z,16.95
2019-03-31T10:28:30.692Z,17.30
2019-03-31T10:31:07.089Z,17.44
2019-03-31T10:33:42.528Z,17.43
2019-03-31T10:36:12.948Z,17.70
2019-03-31T10:39:02.197Z,17.91
2019-03-31T10:41:31.692Z,17.68
2019-03-31T10:44:00.977Z,17.93
2019-03-31T10:46:30.319Z,18.20
2019-03-31T10:48:59.759Z,17.91
2019-03-31T10:51:29.099Z,18.04
2019-03-31T10:53:58.658Z,18.08
2019-03-31T10:56:27.990Z,17.85
2019-03-31T10:58:57.326Z,17.97
2019-03-31T11:01:26.658Z,17.90
2019-03-31T11:03:55.997Z,18.09
2019-03-31T11:06:25.327Z,18.28
2019-03-31T11:08:54.667Z,18.26
2019-03-31T11:11:23.997Z,18.28
2019-03-31T11:13:53.589Z,18.12
2019-03-31T11:16:22.919Z,18.31
2019-03-31T11:18:52.259Z,18.33
2019-03-31T11:24:17.055Z,18.25
2019-03-31T11:26:46.383Z,18.24
2019-03-31T11:29:15.726Z,18.25
2019-03-31T11:31:45.064Z,18.52
2019-03-31T11:34:14.418Z,18.20
2019-03-31T11:36:43.748Z,18.61
2019-03-31T11:39:16.103Z,18.70
2019-03-31T11:42:03.219Z,18.60
2019-03-31T11:44:32.548Z,18.64
2019-03-31T11:47:01.889Z,18.60
2019-03-31T11:49:31.511Z,18.53
2019-03-31T11:52:00.850Z,18.20
2019-03-31T11:54:30.181Z,18.28
2019-03-31T11:56:59.523Z,18.24
2019-03-31T11:59:28.857Z,18.38
2019-03-31T12:01:58.267Z,18.34
2019-03-31T12:04:27.602Z,18.76
2019-03-31T12:06:56.937Z,18.59
2019-03-31T12:09:26.275Z,18.66
2019-03-31T12:11:55.609Z,18.68
2019-03-31T12:14:24.952Z,18.76
2019-03-31T12:16:54.288Z,18.59
2019-03-31T12:19:23.627Z,18.76
2019-03-31T12:21:53.244Z,18.57
2019-03-31T12:24:22.585Z,18.75
2019-03-31T12:26:51.918Z,18.68
2019-03-31T12:29:21.265Z,18.48
2019-03-31T12:31:50.739Z,18.49
2019-03-31T12:34:20.088Z,18.41
2019-03-31T12:36:49.427Z,18.57
2019-03-31T12:39:18.758Z,18.70
2019-03-31T12:41:48.116Z,18.74
2019-03-31T12:44:17.455Z,18.71
2019-03-31T12:46:46.872Z,18.76
2019-03-31T12:49:16.224Z,19.11
2019-03-31T12:51:45.893Z,19.08
2019-03-31T12:54:15.212Z,18.78
2019-03-31T12:56:44.553Z,18.73
2019-03-31T12:59:13.883Z,18.81
2019-03-31T13:01:43.220Z,18.94
2019-03-31T13:04:12.560Z,19.10
2019-03-31T13:06:41.892Z,19.16
2019-03-31T13:09:11.574Z,19.26
2019-03-31T13:11:41.187Z,19.30
2019-03-31T13:14:10.533Z,19.10
2019-03-31T13:16:39.860Z,19.02
2019-03-31T13:19:09.499Z,19.18
2019-03-31T13:21:57.940Z,18.94
2019-03-31T13:24:27.279Z,18.80
2019-03-31T13:26:56.956Z,18.72
2019-03-31T13:29:26.299Z,18.84
2019-03-31T13:31:55.641Z,18.92
2019-03-31T13:34:24.989Z,18.95
2019-03-31T13:36:54.319Z,19.07
2019-03-31T13:39:23.662Z,19.15
2019-03-31T13:42:05.253Z,19.18
2019-03-31T13:44:34.598Z,19.07
2019-03-31T13:47:03.929Z,18.94
2019-03-31T13:49:33.268Z,19.05
2019-03-31T13:52:02.609Z,19.19
2019-03-31T13:54:31.936Z,19.06
2019-03-31T13:57:01.761Z,19.09
2019-03-31T13:59:31.061Z,19.18
2019-03-31T14:02:00.598Z,19.48
2019-03-31T14:04:51.681Z,19.29
2019-03-31T14:10:32.464Z,19.48
2019-03-31T14:13:01.888Z,19.41
2019-03-31T14:15:31.210Z,19.58
2019-03-31T14:18:00.912Z,19.48
2019-03-31T14:20:30.297Z,19.62
2019-03-31T14:22:59.583Z,19.16
2019-03-31T14:25:28.979Z,19.24
2019-03-31T14:27:58.325Z,19.80
2019-03-31T14:30:27.655Z,19.60
2019-03-31T14:33:16.151Z,19.83
2019-03-31T14:35:45.691Z,19.89
2019-03-31T14:38:15.015Z,19.68
2019-03-31T14:40:44.787Z,19.71
2019-03-31T14:43:14.359Z,19.38
2019-03-31T14:45:43.696Z,19.04
2019-03-31T14:48:13.019Z,18.97
2019-03-31T14:50:42.424Z,19.04
2019-03-31T14:53:30.845Z,19.02
2019-03-31T14:56:00.189Z,19.34
2019-03-31T14:58:29.523Z,19.32
2019-03-31T15:00:58.884Z,19.31
2019-03-31T15:03:28.287Z,19.29
2019-03-31T15:05:57.620Z,19.28
2019-03-31T15:08:54.248Z,19.35
2019-03-31T15:11:26.647Z,19.51
2019-03-31T15:13:55.971Z,19.48
2019-03-31T15:16:25.310Z,19.58
2019-03-31T15:18:54.642Z,19.62
2019-03-31T15:21:24.264Z,19.54
2019-03-31T15:23:53.610Z,19.53
2019-03-31T15:26:22.932Z,19.78
2019-03-31T15:28:52.266Z,19.33
2019-03-31T15:31:21.593Z,19.40
2019-03-31T15:33:50.933Z,19.71
2019-03-31T15:36:25.519Z,19.70
2019-03-31T15:39:08.140Z,19.66
2019-03-31T15:41:45.076Z,19.59
2019-03-31T15:44:14.477Z,19.39
2019-03-31T15:46:43.864Z,19.58
2019-03-31T15:49:13.265Z,19.60
2019-03-31T15:51:42.652Z,19.45
2019-03-31T15:54:12.471Z,19.79
2019-03-31T15:56:41.877Z,19.69
2019-03-31T15:59:11.306Z,19.75
2019-03-31T16:01:40.719Z,19.70
2019-03-31T16:04:10.148Z,19.70
2019-03-31T16:06:39.608Z,19.69
2019-03-31T16:09:22.453Z,19.69
2019-03-31T16:11:53.951Z,19.65
2019-03-31T16:14:30.800Z,19.44
2019-03-31T16:17:00.266Z,19.18
2019-03-31T16:19:29.627Z,19.32
2019-03-31T16:21:59.108Z,19.37
2019-03-31T16:27:55.584Z,18.96
2019-03-31T16:30:25.183Z,18.68
2019-03-31T16:32:55.024Z,18.59
2019-03-31T16:38:48.369Z,18.56
2019-03-31T16:41:18.164Z,18.46
2019-03-31T16:43:47.884Z,18.36
2019-03-31T16:46:39.704Z,18.29
2019-03-31T16:49:13.354Z,18.10
2019-03-31T16:51:42.879Z,18.08
2019-03-31T16:54:12.403Z,17.94
2019-03-31T16:56:41.883Z,17.86
2019-03-31T16:59:11.389Z,17.86
2019-03-31T17:01:47.290Z,17.76
2019-03-31T17:04:17.234Z,17.74
2019-03-31T17:06:46.766Z,17.54
2019-03-31T17:09:16.320Z,17.38
2019-03-31T17:11:45.926Z,17.43
2019-03-31T17:14:15.514Z,17.27
2019-03-31T17:16:45.446Z,17.15
2019-03-31T17:21:54.954Z,17.30
2019-03-31T17:24:43.573Z,17.07
2019-03-31T17:27:14.273Z,17.00
2019-03-31T17:33:12.270Z,16.92
2019-03-31T17:35:41.703Z,17.07
2019-03-31T17:38:11.088Z,16.97
2019-03-31T17:40:40.462Z,16.91
2019-03-31T17:43:10.087Z,16.81
2019-03-31T17:45:39.688Z,16.68
2019-03-31T17:48:10.676Z,16.52
2019-03-31T17:50:40.022Z,16.47
2019-03-31T17:53:09.373Z,16.48
2019-03-31T17:55:38.732Z,16.45
2019-03-31T17:58:08.365Z,16.30
2019-03-31T18:00:37.774Z,16.16
2019-03-31T18:03:07.317Z,16.23
2019-03-31T18:05:36.999Z,16.01
2019-03-31T18:08:25.441Z,16.02
2019-03-31T18:10:54.844Z,15.90
2019-03-31T18:13:24.372Z,16.00
2019-03-31T18:15:53.895Z,15.94
2019-03-31T18:18:23.432Z,15.81
2019-03-31T18:20:52.831Z,15.83
2019-03-31T18:23:22.597Z,15.82
2019-03-31T18:25:52.024Z,15.68
2019-03-31T18:28:21.450Z,15.65
2019-03-31T18:30:50.945Z,15.52
2019-03-31T18:33:51.554Z,15.69
2019-03-31T18:36:35.569Z,15.52
2019-03-31T18:38:57.669Z,15.52
2019-03-31T18:41:39.660Z,15.65
2019-03-31T18:44:09.169Z,15.78
2019-03-31T18:46:38.596Z,15.66
2019-03-31T18:49:08.086Z,15.66
2019-03-31T18:51:37.580Z,15.62
2019-03-31T18:55:04.617Z,15.60
2019-03-31T19:01:08.591Z,15.45
2019-03-31T19:03:57.203Z,15.45
2019-03-31T19:06:45.803Z,15.43
2019-03-31T19:09:34.418Z,15.23
2019-03-31T19:12:23.017Z,15.33
2019-03-31T19:15:09.172Z,15.02
2019-03-31T19:17:57.815Z,15.02
2019-03-31T19:20:46.573Z,15.02
2019-03-31T19:23:29.639Z,14.80
2019-03-31T19:26:30.157Z,14.75
2019-03-31T19:29:18.716Z,14.75
2019-03-31T19:35:16.906Z,14.60
2019-03-31T19:38:18.076Z,14.43
2019-03-31T19:41:06.656Z,14.43
2019-03-31T19:49:25.236Z,14.29
2019-03-31T20:01:05.436Z,14.19
2019-03-31T20:03:54.449Z,14.17
2019-03-31T20:06:43.047Z,14.15
2019-03-31T20:12:40.533Z,14.00
2019-03-31T20:15:29.031Z,13.74
2019-03-31T20:18:37.111Z,13.89
2019-03-31T20:21:31.819Z,13.86
2019-03-31T20:24:31.229Z,13.68
2019-03-31T20:30:19.840Z,13.57
2019-03-31T20:33:08.506Z,13.70
2019-03-31T20:35:56.931Z,13.79
2019-03-31T20:39:04.823Z,13.64
2019-03-31T20:41:50.500Z,13.69
2019-03-31T20:44:19.828Z,13.69
2019-03-31T20:46:49.233Z,13.63
2019-03-31T20:49:18.588Z,13.63
2019-03-31T20:51:47.927Z,13.51
2019-03-31T20:54:32.919Z,13.22
2019-03-31T20:57:00.567Z,13.22
2019-03-31T20:59:49.541Z,13.21
2019-03-31T21:02:19.188Z,13.21
2019-03-31T21:05:08.133Z,13.31
2019-03-31T21:07:49.096Z,13.29
2019-03-31T21:10:18.436Z,13.29
2019-03-31T21:12:47.768Z,13.22
2019-03-31T21:15:17.108Z,13.09
2019-03-31T21:18:05.787Z,13.03
2019-03-31T21:20:35.128Z,13.03
2019-03-31T21:23:04.460Z,13.17
2019-03-31T21:25:34.043Z,13.11
2019-03-31T21:28:22.704Z,13.06
2019-03-31T21:30:52.050Z,13.06
2019-03-31T21:33:21.391Z,13.02
2019-03-31T21:35:50.802Z,12.80
2019-03-31T21:38:20.239Z,12.79
2019-03-31T21:40:49.732Z,12.87
2019-03-31T21:43:19.066Z,12.88
2019-03-31T21:45:48.395Z,12.80
2019-03-31T21:48:37.182Z,12.72
2019-03-31T21:51:06.511Z,12.72
2019-03-31T21:53:35.846Z,12.69
2019-03-31T21:56:17.724Z,12.64
2019-03-31T21:58:47.065Z,12.64
2019-03-31T22:04:37.116Z,12.59
2019-03-31T22:07:06.623Z,12.58
2019-03-31T22:09:48.708Z,12.52
2019-03-31T22:12:18.154Z,12.39
2019-03-31T22:14:47.714Z,12.39
2019-03-31T22:17:17.542Z,12.27
2019-03-31T22:19:47.045Z,12.16
2019-03-31T22:22:16.327Z,12.15
2019-03-31T22:24:45.664Z,12.03
2019-03-31T22:27:27.576Z,11.98
2019-03-31T22:29:56.916Z,12.06
2019-03-31T22:32:26.249Z,12.03
2019-03-31T22:34:55.612Z,12.04
2019-03-31T22:37:24.946Z,12.01
2019-03-31T22:39:54.311Z,12.02
2019-03-31T22:42:23.729Z,12.03
2019-03-31T22:45:05.298Z,11.88
2019-03-31T22:47:46.613Z,11.80
2019-03-31T22:50:16.048Z,11.68
2019-03-31T22:52:45.400Z,11.60
2019-03-31T22:55:15.001Z,11.61
2019-03-31T22:57:44.332Z,11.61
2019-03-31T23:03:22.257Z,11.45
2019-03-31T23:05:51.723Z,11.39
2019-03-31T23:08:21.020Z,11.36
2019-03-31T23:10:50.354Z,11.30
2019-03-31T23:13:19.701Z,11.25
2019-03-31T23:15:49.038Z,11.12
2019-03-31T23:18:18.387Z,11.06
2019-03-31T23:20:47.728Z,11.02
2019-03-31T23:23:17.328Z,11.00
2019-03-31T23:25:46.680Z,10.95
2019-03-31T23:28:16.255Z,10.91
2019-03-31T23:31:25.509Z,10.90
2019-03-31T23:33:54.844Z,10.87
2019-03-31T23:36:24.188Z,10.88
2019-03-31T23:38:53.769Z,10.77
2019-03-31T23:41:23.114Z,10.76
2019-03-31T23:43:52.454Z,10.72
2019-03-31T23:46:21.805Z,10.67
2019-03-31T23:48:58.419Z,10.52
2019-03-31T23:51:28.072Z,10.53
2019-03-31T23:53:57.405Z,10.47
2019-03-31T23:56:28.412Z,10.48
2019-03-31T23:58:57.748Z,10.36
